Time;durP1;ratioP1;P1;durP2;ratioP2;P2;SDS_P1;SDS_P2;PMS_P1;PMS_P2;Temp;Humidity;BMP_temperature;BMP_pressure;BME280_temperature;BME280_humidity;BME280_pressure;Samples;Min_cycle;Max_cycle;Signal;HPM_P1;HPM_P2
2023/02/26 00:10:14;;;;;;;3.73;3.20;;;2.00;96.20;;;;;;6149380;23;20566;-85
2023/02/26 00:35:32;;;;;;;4.63;4.00;;;1.70;97.10;;;;;;5896066;23;20217;-83
2023/02/26 01:00:51;;;;;;;3.97;3.17;;;1.70;97.50;;;;;;5820249;24;20246;-82
2023/02/26 01:35:47;;;;;;;3.60;3.30;;;1.40;93.10;;;;;;5754095;24;20590;-85
2023/02/26 01:56:01;;;;;;;4.10;3.10;;;1.30;91.90;;;;;;5743838;24;20649;-81
2023/02/26 02:27:01;;;;;;;4.30;2.90;;;1.20;91.00;;;;;;5728253;24;20193;-83
2023/02/26 03:22:32;;;;;;;4.33;3.77;;;1.10;92.10;;;;;;5811206;24;20520;-84
2023/02/26 03:53:01;;;;;;;4.10;3.30;;;1.10;91.50;;;;;;5957412;23;20224;-83
2023/02/26 04:17:54;;;;;;;4.23;2.10;;;1.20;89.70;;;;;;6085834;23;20227;-80
2023/02/26 04:43:47;;;;;;;2.80;2.33;;;1.20;89.90;;;;;;5778185;24;20161;-83
2023/02/26 05:09:21;;;;;;;2.23;2.00;;;1.00;90.10;;;;;;5745176;24;20246;-83
2023/02/26 05:13:40;;;;;;;2.70;2.37;;;0.90;90.20;;;;;;5812808;24;20592;-82
2023/02/26 05:34:23;;;;;;;3.47;2.70;;;0.80;91.80;;;;;;5903397;23;20186;-82
2023/02/26 05:59:41;;;;;;;3.40;2.80;;;0.80;93.80;;;;;;6027141;23;20168;-84
2023/02/26 07:10:54;;;;;;;2.87;2.27;;;0.30;84.40;;;;;;5948930;23;20556;-83
2023/02/26 07:41:15;;;;;;;2.73;2.00;;;0.90;82.70;;;;;;6109601;23;20237;-86
2023/02/26 08:01:41;;;;;;;2.40;2.20;;;1.00;81.40;;;;;;5932120;23;20577;-84
2023/02/26 08:26:35;;;;;;;1.33;1.27;;;0.90;81.30;;;;;;5840055;24;20174;-84
2023/02/26 09:12:32;;;;;;;2.13;1.77;;;1.00;80.80;;;;;;5763431;24;21012;-82
2023/02/26 09:37:36;;;;;;;2.67;1.80;;;1.10;81.90;;;;;;5929777;23;20498;-83
2023/02/26 10:07:51;;;;;;;2.87;1.90;;;1.30;82.20;;;;;;5903745;23;20205;-82
2023/02/26 10:43:20;;;;;;;3.03;2.37;;;1.30;84.20;;;;;;5900130;24;20219;-84
2023/02/26 11:04:03;;;;;;;3.33;1.70;;;1.30;85.70;;;;;;6110416;23;20138;-84
2023/02/26 11:24:33;;;;;;;2.00;1.90;;;1.80;80.80;;;;;;5985744;23;20264;-82
2023/02/26 11:28:53;;;;;;;2.33;2.10;;;2.10;78.60;;;;;;5977076;23;20538;-83
2023/02/26 11:49:13;;;;;;;1.83;1.50;;;1.80;76.20;;;;;;5827998;24;20306;-83
2023/02/26 12:14:54;;;;;;;2.33;1.53;;;1.90;77.00;;;;;;5837062;24;20682;-81
2023/02/26 12:55:19;;;;;;;3.60;2.40;;;2.30;77.30;;;;;;5957710;23;20464;-84
2023/02/26 13:26:10;;;;;;;2.30;1.40;;;2.30;75.00;;;;;;6084551;23;20165;-82
2023/02/26 13:51:22;;;;;;;2.73;1.90;;;2.30;76.00;;;;;;6060696;23;20536;-83
2023/02/26 14:16:34;;;;;;;6.33;1.50;;;2.60;75.70;;;;;;5851078;24;20582;-83
2023/02/26 14:51:46;;;;;;;2.70;1.57;;;2.40;75.90;;;;;;5806697;24;20341;-84
2023/02/26 15:27:21;;;;;;;3.57;1.50;;;2.30;78.10;;;;;;6054870;23;20511;-85
2023/02/26 15:57:35;;;;;;;2.50;2.03;;;1.60;80.30;;;;;;6038336;23;20526;-83
2023/02/26 16:28:07;;;;;;;3.70;2.00;;;1.60;80.90;;;;;;6002336;23;20373;-81
2023/02/26 17:44:10;;;;;;;5.87;3.17;;;1.60;82.40;;;;;;6185008;23;20244;-82
2023/02/26 17:59:42;;;;;;;3.80;2.90;;;1.60;82.20;;;;;;6183535;22;20281;-82
2023/02/26 18:25:02;;;;;;;6.20;3.27;;;1.60;81.80;;;;;;5867929;23;20286;-82
2023/02/26 18:50:36;;;;;;;6.40;4.33;;;1.20;84.20;;;;;;5689893;24;20218;-81
2023/02/26 19:20:54;;;;;;;9.33;5.47;;;1.70;81.60;;;;;;5878718;23;20224;-82
2023/02/26 20:01:29;;;;;;;5.83;3.40;;;1.70;80.30;;;;;;6067557;23;20382;-82
2023/02/26 20:31:26;;;;;;;3.53;2.40;;;1.90;76.30;;;;;;5915294;23;20376;-82
2023/02/26 20:57:22;;;;;;;3.67;2.00;;;1.90;76.60;;;;;;5894688;24;20334;-81
2023/02/26 21:22:35;;;;;;;3.93;2.37;;;2.10;76.90;;;;;;5768660;24;20187;-83
2023/02/26 21:58:08;;;;;;;5.60;2.90;;;2.00;79.20;;;;;;6081211;23;20576;-81
2023/02/26 22:22:50;;;;;;;6.40;3.40;;;1.90;82.40;;;;;;5822443;24;20352;-83
2023/02/26 23:24:22;;;;;;;4.70;3.13;;;1.60;86.00;;;;;;6111389;23;20255;-81
2023/02/26 23:49:04;;;;;;;5.23;2.63;;;1.50;82.80;;;;;;5823273;23;20553;-83
